sensor_id;sensor_type;location;lat;lon;timestamp;pressure;altitude;pressure_sealevel;temperature;humidity
57568;BME280;43403;51.948;5.922;2023-02-11T00:00:18;103330.19;;;6.40;100.00
57568;BME280;43403;51.948;5.922;2023-02-11T00:02:45;103315.41;;;6.41;100.00
57568;BME280;43403;51.948;5.922;2023-02-11T00:05:13;103332.03;;;6.38;100.00
57568;BME280;43403;51.948;5.922;2023-02-11T00:07:40;103325.78;;;6.42;100.00
57568;BME280;43403;51.948;5.922;2023-02-11T00:10:07;103329.13;;;6.46;100.00
57568;BME280;43403;51.948;5.922;2023-02-11T00:12:35;103337.13;;;6.41;100.00
57568;BME280;43403;51.948;5.922;2023-02-11T00:15:02;103336.22;;;6.42;100.00
57568;BME280;43403;51.948;5.922;2023-02-11T00:17:30;103334.63;;;6.38;100.00
57568;BME280;43403;51.948;5.922;2023-02-11T00:19:56;103331.13;;;6.39;100.00
57568;BME280;43403;51.948;5.922;2023-02-11T00:22:23;103320.63;;;6.41;100.00
57568;BME280;43403;51.948;5.922;2023-02-11T00:24:49;103325.03;;;6.39;100.00
57568;BME280;43403;51.948;5.922;2023-02-11T00:27:16;103318.75;;;6.44;100.00
57568;BME280;43403;51.948;5.922;2023-02-11T00:29:42;103312.69;;;6.44;100.00
57568;BME280;43403;51.948;5.922;2023-02-11T00:32:09;103319.78;;;6.40;100.00
57568;BME280;43403;51.948;5.922;2023-02-11T00:34:36;103320.69;;;6.39;100.00
57568;BME280;43403;51.948;5.922;2023-02-11T00:37:03;103323.31;;;6.39;100.00
57568;BME280;43403;51.948;5.922;2023-02-11T00:39:30;103326.06;;;6.34;100.00
57568;BME280;43403;51.948;5.922;2023-02-11T00:41:57;103322.44;;;6.39;100.00
57568;BME280;43403;51.948;5.922;2023-02-11T00:44:24;103332.06;;;6.37;100.00
57568;BME280;43403;51.948;5.922;2023-02-11T00:46:50;103335.47;;;6.39;100.00
57568;BME280;43403;51.948;5.922;2023-02-11T00:49:16;103338.03;;;6.40;100.00
57568;BME280;43403;51.948;5.922;2023-02-11T00:51:43;103343.97;;;6.44;100.00
57568;BME280;43403;51.948;5.922;2023-02-11T00:54:09;103342.16;;;6.46;100.00
57568;BME280;43403;51.948;5.922;2023-02-11T00:56:36;103348.22;;;6.46;100.00
57568;BME280;43403;51.948;5.922;2023-02-11T00:59:02;103338.81;;;6.42;100.00
57568;BME280;43403;51.948;5.922;2023-02-11T01:01:29;103342.34;;;6.41;100.00
57568;BME280;43403;51.948;5.922;2023-02-11T01:03:55;103333.72;;;6.39;100.00
57568;BME280;43403;51.948;5.922;2023-02-11T01:06:22;103339.22;;;6.31;100.00
57568;BME280;43403;51.948;5.922;2023-02-11T01:08:48;103337.47;;;6.32;100.00
57568;BME280;43403;51.948;5.922;2023-02-11T01:11:17;103320.09;;;6.31;100.00
57568;BME280;43403;51.948;5.922;2023-02-11T01:13:45;103315.78;;;6.31;100.00
57568;BME280;43403;51.948;5.922;2023-02-11T01:16:12;103315.78;;;6.31;100.00
57568;BME280;43403;51.948;5.922;2023-02-11T01:18:39;103313.16;;;6.31;100.00
57568;BME280;43403;51.948;5.922;2023-02-11T01:21:07;103301.81;;;6.32;100.00
57568;BME280;43403;51.948;5.922;2023-02-11T01:23:33;103285.63;;;6.24;100.00
57568;BME280;43403;51.948;5.922;2023-02-11T01:26:00;103301.06;;;6.29;100.00
57568;BME280;43403;51.948;5.922;2023-02-11T01:28:28;103301.22;;;6.26;100.00
57568;BME280;43403;51.948;5.922;2023-02-11T01:30:55;103291.72;;;6.23;100.00
57568;BME280;43403;51.948;5.922;2023-02-11T01:33:23;103286.47;;;6.25;100.00
57568;BME280;43403;51.948;5.922;2023-02-11T01:35:49;103289.19;;;6.22;100.00
57568;BME280;43403;51.948;5.922;2023-02-11T01:38:22;103283.91;;;6.23;100.00
57568;BME280;43403;51.948;5.922;2023-02-11T01:40:50;103298.56;;;6.27;100.00
57568;BME280;43403;51.948;5.922;2023-02-11T01:43:17;103293.38;;;6.26;100.00
57568;BME280;43403;51.948;5.922;2023-02-11T01:48:14;103295.06;;;6.27;100.00
57568;BME280;43403;51.948;5.922;2023-02-11T01:50:44;103314.84;;;6.32;100.00
57568;BME280;43403;51.948;5.922;2023-02-11T01:53:11;103327.00;;;6.33;100.00
57568;BME280;43403;51.948;5.922;2023-02-11T01:55:57;103325.13;;;6.37;100.00
57568;BME280;43403;51.948;5.922;2023-02-11T01:58:44;103325.13;;;6.37;100.00
57568;BME280;43403;51.948;5.922;2023-02-11T02:01:15;103313.03;;;6.34;100.00
57568;BME280;43403;51.948;5.922;2023-02-11T02:03:44;103306.88;;;6.37;100.00
57568;BME280;43403;51.948;5.922;2023-02-11T02:06:29;103320.91;;;6.33;100.00
57568;BME280;43403;51.948;5.922;2023-02-11T02:09:05;103319.91;;;6.37;100.00
57568;BME280;43403;51.948;5.922;2023-02-11T02:11:35;103317.41;;;6.34;100.00
57568;BME280;43403;51.948;5.922;2023-02-11T02:14:01;103321.09;;;6.28;100.00
57568;BME280;43403;51.948;5.922;2023-02-11T02:16:34;103321.94;;;6.29;100.00
57568;BME280;43403;51.948;5.922;2023-02-11T02:24:34;103294.78;;;6.34;100.00
57568;BME280;43403;51.948;5.922;2023-02-11T02:32:49;103284.59;;;6.28;100.00
57568;BME280;43403;51.948;5.922;2023-02-11T02:35:34;103280.91;;;6.34;100.00
57568;BME280;43403;51.948;5.922;2023-02-11T02:38:20;103279.28;;;6.31;100.00
57568;BME280;43403;51.948;5.922;2023-02-11T02:40:52;103279.50;;;6.25;100.00
57568;BME280;43403;51.948;5.922;2023-02-11T02:43:21;103279.66;;;6.21;100.00
57568;BME280;43403;51.948;5.922;2023-02-11T02:45:48;103280.47;;;6.23;100.00
57568;BME280;43403;51.948;5.922;2023-02-11T02:51:07;103264.94;;;6.20;100.00
57568;BME280;43403;51.948;5.922;2023-02-11T03:03:47;103263.13;;;6.22;100.00
57568;BME280;43403;51.948;5.922;2023-02-11T03:06:16;103269.28;;;6.19;100.00
57568;BME280;43403;51.948;5.922;2023-02-11T03:08:56;103272.91;;;6.15;100.00
57568;BME280;43403;51.948;5.922;2023-02-11T03:11:25;103269.47;;;6.14;100.00
57568;BME280;43403;51.948;5.922;2023-02-11T03:13:53;103271.19;;;6.16;100.00
57568;BME280;43403;51.948;5.922;2023-02-11T03:16:25;103263.41;;;6.14;100.00
57568;BME280;43403;51.948;5.922;2023-02-11T03:18:58;103270.25;;;6.17;100.00
57568;BME280;43403;51.948;5.922;2023-02-11T03:21:28;103265.28;;;6.10;100.00
57568;BME280;43403;51.948;5.922;2023-02-11T03:23:59;103265.25;;;6.12;100.00
57568;BME280;43403;51.948;5.922;2023-02-11T03:26:33;103259.28;;;6.08;100.00
57568;BME280;43403;51.948;5.922;2023-02-11T03:31:55;103260.88;;;6.12;100.00
57568;BME280;43403;51.948;5.922;2023-02-11T03:42:35;103247.00;;;6.12;100.00
57568;BME280;43403;51.948;5.922;2023-02-11T03:45:10;103239.28;;;6.09;100.00
57568;BME280;43403;51.948;5.922;2023-02-11T03:47:39;103243.84;;;6.04;100.00
57568;BME280;43403;51.948;5.922;2023-02-11T03:50:07;103241.28;;;6.02;100.00
57568;BME280;43403;51.948;5.922;2023-02-11T03:52:36;103242.81;;;6.08;100.00
57568;BME280;43403;51.948;5.922;2023-02-11T03:55:10;103241.88;;;6.09;100.00
57568;BME280;43403;51.948;5.922;2023-02-11T03:57:38;103246.53;;;6.01;100.00
57568;BME280;43403;51.948;5.922;2023-02-11T04:00:06;103248.91;;;6.07;100.00
57568;BME280;43403;51.948;5.922;2023-02-11T04:02:36;103241.16;;;6.05;100.00
57568;BME280;43403;51.948;5.922;2023-02-11T04:05:04;103254.31;;;6.02;100.00
57568;BME280;43403;51.948;5.922;2023-02-11T04:07:32;103264.44;;;6.10;100.00
57568;BME280;43403;51.948;5.922;2023-02-11T04:09:59;103262.59;;;6.13;100.00
57568;BME280;43403;51.948;5.922;2023-02-11T04:12:25;103261.56;;;6.18;100.00
57568;BME280;43403;51.948;5.922;2023-02-11T04:14:52;103269.47;;;6.14;100.00
57568;BME280;43403;51.948;5.922;2023-02-11T04:17:18;103274.63;;;6.16;100.00
57568;BME280;43403;51.948;5.922;2023-02-11T04:19:44;103286.81;;;6.16;100.00
57568;BME280;43403;51.948;5.922;2023-02-11T04:22:11;103290.28;;;6.16;100.00
57568;BME280;43403;51.948;5.922;2023-02-11T04:24:38;103284.00;;;6.22;100.00
57568;BME280;43403;51.948;5.922;2023-02-11T04:27:04;103278.81;;;6.20;100.00
57568;BME280;43403;51.948;5.922;2023-02-11T04:29:31;103270.25;;;6.17;100.00
57568;BME280;43403;51.948;5.922;2023-02-11T04:31:57;103265.00;;;6.18;100.00
57568;BME280;43403;51.948;5.922;2023-02-11T04:34:24;103268.44;;;6.19;100.00
57568;BME280;43403;51.948;5.922;2023-02-11T04:36:50;103272.88;;;6.17;100.00
57568;BME280;43403;51.948;5.922;2023-02-11T04:39:17;103259.00;;;6.16;100.00
57568;BME280;43403;51.948;5.922;2023-02-11T04:41:44;103272.78;;;6.20;100.00
57568;BME280;43403;51.948;5.922;2023-02-11T04:44:10;103272.69;;;6.21;100.00
57568;BME280;43403;51.948;5.922;2023-02-11T04:46:36;103273.38;;;6.26;100.00
57568;BME280;43403;51.948;5.922;2023-02-11T04:49:03;103277.69;;;6.27;100.00
57568;BME280;43403;51.948;5.922;2023-02-11T04:51:29;103271.56;;;6.28;100.00
57568;BME280;43403;51.948;5.922;2023-02-11T04:53:56;103268.16;;;6.26;100.00
57568;BME280;43403;51.948;5.922;2023-02-11T04:56:22;103280.22;;;6.29;100.00
57568;BME280;43403;51.948;5.922;2023-02-11T04:58:48;103272.63;;;6.23;100.00
57568;BME280;43403;51.948;5.922;2023-02-11T05:01:15;103268.34;;;6.22;100.00
57568;BME280;43403;51.948;5.922;2023-02-11T05:03:42;103267.41;;;6.23;100.00
57568;BME280;43403;51.948;5.922;2023-02-11T05:06:09;103273.38;;;6.26;100.00
57568;BME280;43403;51.948;5.922;2023-02-11T05:08:36;103265.66;;;6.23;100.00
57568;BME280;43403;51.948;5.922;2023-02-11T05:11:03;103267.56;;;6.20;100.00
57568;BME280;43403;51.948;5.922;2023-02-11T05:13:30;103261.38;;;6.22;100.00
57568;BME280;43403;51.948;5.922;2023-02-11T05:15:56;103265.66;;;6.23;100.00
57568;BME280;43403;51.948;5.922;2023-02-11T05:18:23;103260.44;;;6.23;100.00
57568;BME280;43403;51.948;5.922;2023-02-11T05:20:49;103267.38;;;6.24;100.00
57568;BME280;43403;51.948;5.922;2023-02-11T05:23:16;103268.84;;;6.31;100.00
57568;BME280;43403;51.948;5.922;2023-02-11T05:25:42;103276.78;;;6.28;100.00
57568;BME280;43403;51.948;5.922;2023-02-11T05:28:09;103271.56;;;6.28;100.00
57568;BME280;43403;51.948;5.922;2023-02-11T05:30:35;103284.53;;;6.30;100.00
57568;BME280;43403;51.948;5.922;2023-02-11T05:33:02;103277.69;;;6.27;100.00
57568;BME280;43403;51.948;5.922;2023-02-11T05:35:28;103272.28;;;6.32;100.00
57568;BME280;43403;51.948;5.922;2023-02-11T05:37:55;103272.41;;;6.29;100.00
57568;BME280;43403;51.948;5.922;2023-02-11T05:40:22;103279.31;;;6.30;100.00
57568;BME280;43403;51.948;5.922;2023-02-11T05:42:48;103275.25;;;6.23;100.00
57568;BME280;43403;51.948;5.922;2023-02-11T05:45:14;103275.13;;;6.26;100.00
57568;BME280;43403;51.948;5.922;2023-02-11T05:47:41;103278.59;;;6.26;100.00
57568;BME280;43403;51.948;5.922;2023-02-11T05:50:07;103291.56;;;6.28;100.00
57568;BME280;43403;51.948;5.922;2023-02-11T05:52:34;103276.03;;;6.25;100.00
57568;BME280;43403;51.948;5.922;2023-02-11T05:55:01;103275.88;;;6.29;100.00
57568;BME280;43403;51.948;5.922;2023-02-11T05:57:28;103281.75;;;6.34;100.00
57568;BME280;43403;51.948;5.922;2023-02-11T05:59:54;103293.19;;;6.30;100.00
57568;BME280;43403;51.948;5.922;2023-02-11T06:02:21;103283.63;;;6.31;100.00
57568;BME280;43403;51.948;5.922;2023-02-11T06:04:48;103287.94;;;6.32;100.00
57568;BME280;43403;51.948;5.922;2023-02-11T06:07:14;103291.38;;;6.32;100.00
57568;BME280;43403;51.948;5.922;2023-02-11T06:09:42;103283.56;;;6.32;100.00
57568;BME280;43403;51.948;5.922;2023-02-11T06:12:09;103293.16;;;6.32;100.00
57568;BME280;43403;51.948;5.922;2023-02-11T06:14:35;103291.28;;;6.36;100.00
57568;BME280;43403;51.948;5.922;2023-02-11T06:17:02;103289.31;;;6.41;100.00
57568;BME280;43403;51.948;5.922;2023-02-11T06:19:29;103284.34;;;6.34;100.00
57568;BME280;43403;51.948;5.922;2023-02-11T06:21:56;103280.00;;;6.35;100.00
57568;BME280;43403;51.948;5.922;2023-02-11T06:24:23;103277.47;;;6.33;100.00
57568;BME280;43403;51.948;5.922;2023-02-11T06:27:09;103274.66;;;6.38;100.00
57568;BME280;43403;51.948;5.922;2023-02-11T06:29:36;103277.41;;;6.35;100.00
57568;BME280;43403;51.948;5.922;2023-02-11T06:32:02;103280.16;;;6.30;100.00
57568;BME280;43403;51.948;5.922;2023-02-11T06:34:29;103282.72;;;6.32;100.00
57568;BME280;43403;51.948;5.922;2023-02-11T06:36:56;103277.63;;;6.29;100.00
57568;BME280;43403;51.948;5.922;2023-02-11T06:39:22;103278.34;;;6.32;100.00
57568;BME280;43403;51.948;5.922;2023-02-11T06:41:49;103282.66;;;6.33;100.00
57568;BME280;43403;51.948;5.922;2023-02-11T06:44:15;103291.38;;;6.32;100.00
57568;BME280;43403;51.948;5.922;2023-02-11T06:46:42;103292.13;;;6.36;100.00
57568;BME280;43403;51.948;5.922;2023-02-11T06:49:08;103281.97;;;6.28;100.00
57568;BME280;43403;51.948;5.922;2023-02-11T06:51:35;103292.47;;;6.27;100.00
57568;BME280;43403;51.948;5.922;2023-02-11T06:54:04;103288.00;;;6.30;100.00
57568;BME280;43403;51.948;5.922;2023-02-11T06:56:30;103297.53;;;6.31;100.00
57568;BME280;43403;51.948;5.922;2023-02-11T06:58:57;103294.22;;;6.26;100.00
57568;BME280;43403;51.948;5.922;2023-02-11T07:01:25;103299.38;;;6.28;100.00
57568;BME280;43403;51.948;5.922;2023-02-11T07:03:52;103297.44;;;6.33;100.00
57568;BME280;43403;51.948;5.922;2023-02-11T07:06:22;103297.38;;;6.34;100.00
57568;BME280;43403;51.948;5.922;2023-02-11T07:08:50;103294.91;;;6.31;100.00
57568;BME280;43403;51.948;5.922;2023-02-11T07:11:19;103295.00;;;6.28;100.00
57568;BME280;43403;51.948;5.922;2023-02-11T07:13:46;103298.38;;;6.32;100.00
57568;BME280;43403;51.948;5.922;2023-02-11T07:16:14;103302.88;;;6.27;100.00
57568;BME280;43403;51.948;5.922;2023-02-11T07:18:42;103303.63;;;6.30;100.00
57568;BME280;43403;51.948;5.922;2023-02-11T07:21:11;103312.09;;;6.37;100.00
57568;BME280;43403;51.948;5.922;2023-02-11T07:23:38;103312.00;;;6.39;100.00
57568;BME280;43403;51.948;5.922;2023-02-11T07:26:07;103317.22;;;6.39;100.00
57568;BME280;43403;51.948;5.922;2023-02-11T07:28:36;103310.59;;;6.30;100.00
57568;BME280;43403;51.948;5.922;2023-02-11T07:31:11;103318.19;;;6.36;100.00
57568;BME280;43403;51.948;5.922;2023-02-11T07:33:38;103317.50;;;6.31;100.00
57568;BME280;43403;51.948;5.922;2023-02-11T07:36:06;103318.25;;;6.34;100.00
57568;BME280;43403;51.948;5.922;2023-02-11T07:38:34;103324.19;;;6.38;100.00
57568;BME280;43403;51.948;5.922;2023-02-11T07:41:03;103324.09;;;6.41;100.00
57568;BME280;43403;51.948;5.922;2023-02-11T07:43:30;103322.50;;;6.37;100.00
57568;BME280;43403;51.948;5.922;2023-02-11T07:45:57;103326.81;;;6.38;100.00
57568;BME280;43403;51.948;5.922;2023-02-11T07:48:23;103320.91;;;6.33;100.00
57568;BME280;43403;51.948;5.922;2023-02-11T07:50:50;103323.63;;;6.30;100.00
57568;BME280;43403;51.948;5.922;2023-02-11T07:53:16;103325.97;;;6.38;100.00
57568;BME280;43403;51.948;5.922;2023-02-11T07:55:42;103320.84;;;6.34;100.00
57568;BME280;43403;51.948;5.922;2023-02-11T07:58:09;103319.91;;;6.37;100.00
57568;BME280;43403;51.948;5.922;2023-02-11T08:00:36;103328.84;;;6.30;100.00
57568;BME280;43403;51.948;5.922;2023-02-11T08:03:02;103328.84;;;6.30;100.00
57568;BME280;43403;51.948;5.922;2023-02-11T08:05:29;103332.06;;;6.37;100.00
57568;BME280;43403;51.948;5.922;2023-02-11T08:07:55;103332.75;;;6.42;100.00
57568;BME280;43403;51.948;5.922;2023-02-11T08:10:22;103333.59;;;6.42;100.00
57568;BME280;43403;51.948;5.922;2023-02-11T08:12:48;103325.72;;;6.44;100.00
57568;BME280;43403;51.948;5.922;2023-02-11T08:15:15;103325.78;;;6.42;100.00
57568;BME280;43403;51.948;5.922;2023-02-11T08:17:41;103329.22;;;6.43;100.00
57568;BME280;43403;51.948;5.922;2023-02-11T08:20:08;103321.31;;;6.46;100.00
57568;BME280;43403;51.948;5.922;2023-02-11T08:22:34;103323.13;;;6.44;100.00
57568;BME280;43403;51.948;5.922;2023-02-11T08:25:01;103320.22;;;6.51;100.00
57568;BME280;43403;51.948;5.922;2023-02-11T08:27:27;103326.28;;;6.52;100.00
57568;BME280;43403;51.948;5.922;2023-02-11T08:29:54;103327.13;;;6.52;100.00
57568;BME280;43403;51.948;5.922;2023-02-11T08:32:21;103325.38;;;6.53;100.00
57568;BME280;43403;51.948;5.922;2023-02-11T08:34:51;103321.00;;;6.53;100.00
57568;BME280;43403;51.948;5.922;2023-02-11T08:37:18;103333.94;;;6.57;100.00
57568;BME280;43403;51.948;5.922;2023-02-11T08:39:45;103332.13;;;6.59;100.00
57568;BME280;43403;51.948;5.922;2023-02-11T08:42:13;103339.97;;;6.59;100.00
57568;BME280;43403;51.948;5.922;2023-02-11T08:44:42;103332.00;;;6.62;100.00
57568;BME280;43403;51.948;5.922;2023-02-11T08:47:08;103339.72;;;6.65;100.00
57568;BME280;43403;51.948;5.922;2023-02-11T08:49:35;103346.66;;;6.64;100.00
57568;BME280;43403;51.948;5.922;2023-02-11T08:52:01;103350.25;;;6.62;100.00
57568;BME280;43403;51.948;5.922;2023-02-11T08:54:30;103346.47;;;6.70;100.00
57568;BME280;43403;51.948;5.922;2023-02-11T08:56:56;103363.84;;;6.70;100.00
57568;BME280;43403;51.948;5.922;2023-02-11T08:59:23;103359.19;;;6.78;100.00
57568;BME280;43403;51.948;5.922;2023-02-11T09:01:49;103362.59;;;6.80;100.00
57568;BME280;43403;51.948;5.922;2023-02-11T09:04:16;103356.47;;;6.81;100.00
57568;BME280;43403;51.948;5.922;2023-02-11T09:06:42;103366.66;;;6.87;100.00
57568;BME280;43403;51.948;5.922;2023-02-11T09:09:11;103369.25;;;6.87;100.00
57568;BME280;43403;51.948;5.922;2023-02-11T09:11:39;103370.09;;;6.88;100.00
57568;BME280;43403;51.948;5.922;2023-02-11T09:14:07;103363.88;;;6.92;100.00
57568;BME280;43403;51.948;5.922;2023-02-11T09:16:35;103361.03;;;6.98;100.00
57568;BME280;43403;51.948;5.922;2023-02-11T09:19:04;103372.25;;;7.00;100.00
57568;BME280;43403;51.948;5.922;2023-02-11T09:21:30;103369.50;;;7.03;100.00
57568;BME280;43403;51.948;5.922;2023-02-11T09:23:57;103376.38;;;7.06;100.00
57568;BME280;43403;51.948;5.922;2023-02-11T09:26:27;103391.97;;;7.07;100.00
57568;BME280;43403;51.948;5.922;2023-02-11T09:28:54;103376.19;;;7.10;100.00
57568;BME280;43403;51.948;5.922;2023-02-11T09:31:23;103384.69;;;7.16;100.00
57568;BME280;43403;51.948;5.922;2023-02-11T09:33:52;103385.19;;;7.25;100.00
57568;BME280;43403;51.948;5.922;2023-02-11T09:36:24;103389.63;;;7.23;100.00
57568;BME280;43403;51.948;5.922;2023-02-11T09:38:51;103393.72;;;7.29;100.00
57568;BME280;43403;51.948;5.922;2023-02-11T09:43:50;103387.59;;;7.30;100.00
57568;BME280;43403;51.948;5.922;2023-02-11T09:46:18;103392.88;;;7.28;100.00
57568;BME280;43403;51.948;5.922;2023-02-11T09:48:48;103393.66;;;7.30;100.00
57568;BME280;43403;51.948;5.922;2023-02-11T09:51:34;103399.50;;;7.37;100.00
57568;BME280;43403;51.948;5.922;2023-02-11T09:54:12;103406.34;;;7.40;100.00
57568;BME280;43403;51.948;5.922;2023-02-11T09:56:42;103407.66;;;7.50;100.00
57568;BME280;43403;51.948;5.922;2023-02-11T09:59:15;103403.19;;;7.53;100.00
57568;BME280;43403;51.948;5.922;2023-02-11T10:01:45;103412.06;;;7.49;100.00
57568;BME280;43403;51.948;5.922;2023-02-11T10:07:20;103418.75;;;7.57;100.00
57568;BME280;43403;51.948;5.922;2023-02-11T10:12:51;103425.44;;;7.62;100.00
57568;BME280;43403;51.948;5.922;2023-02-11T10:18:39;103437.03;;;7.77;100.00
57568;BME280;43403;51.948;5.922;2023-02-11T10:23:46;103452.66;;;7.79;100.00
57568;BME280;43403;51.948;5.922;2023-02-11T10:26:17;103445.53;;;7.82;100.00
57568;BME280;43403;51.948;5.922;2023-02-11T10:28:49;103456.69;;;7.86;100.00
57568;BME280;43403;51.948;5.922;2023-02-11T10:31:28;103457.56;;;7.86;100.00
57568;BME280;43403;51.948;5.922;2023-02-11T10:34:02;103454.75;;;7.91;100.00
57568;BME280;43403;51.948;5.922;2023-02-11T10:36:33;103457.09;;;7.97;100.00
57568;BME280;43403;51.948;5.922;2023-02-11T10:39:39;103466.50;;;8.01;100.00
57568;BME280;43403;51.948;5.922;2023-02-11T10:42:04;103456.56;;;8.09;100.00
57568;BME280;43403;51.948;5.922;2023-02-11T10:44:36;103461.56;;;8.16;100.00
57568;BME280;43403;51.948;5.922;2023-02-11T10:47:25;103459.63;;;8.19;100.00
57568;BME280;43403;51.948;5.922;2023-02-11T10:49:55;103463.06;;;8.21;100.00
57568;BME280;43403;51.948;5.922;2023-02-11T10:52:29;103461.22;;;8.23;100.00
57568;BME280;43403;51.948;5.922;2023-02-11T10:54:56;103462.84;;;8.26;100.00
57568;BME280;43403;51.948;5.922;2023-02-11T10:57:33;103466.97;;;8.31;100.00
57568;BME280;43403;51.948;5.922;2023-02-11T11:00:37;103477.28;;;8.35;100.00
57568;BME280;43403;51.948;5.922;2023-02-11T11:03:16;103473.72;;;8.37;100.00
57568;BME280;43403;51.948;5.922;2023-02-11T11:05:50;103473.81;;;8.34;100.00
57568;BME280;43403;51.948;5.922;2023-02-11T11:08:17;103473.47;;;8.43;100.00
57568;BME280;43403;51.948;5.922;2023-02-11T11:11:00;103476.03;;;8.45;100.00
57568;BME280;43403;51.948;5.922;2023-02-11T11:13:32;103472.06;;;8.55;100.00
57568;BME280;43403;51.948;5.922;2023-02-11T11:16:06;103474.47;;;8.60;100.00
57568;BME280;43403;51.948;5.922;2023-02-11T11:18:34;103476.88;;;8.64;100.00
57568;BME280;43403;51.948;5.922;2023-02-11T11:21:04;103477.59;;;8.68;100.00
57568;BME280;43403;51.948;5.922;2023-02-11T11:23:35;103474.34;;;8.63;100.00
57568;BME280;43403;51.948;5.922;2023-02-11T11:26:06;103479.16;;;8.72;100.00
57568;BME280;43403;51.948;5.922;2023-02-11T11:28:40;103473.72;;;8.77;100.00
57568;BME280;43403;51.948;5.922;2023-02-11T11:31:15;103465.59;;;8.83;100.00
57568;BME280;43403;51.948;5.922;2023-02-11T11:33:45;103473.50;;;8.81;100.00
57568;BME280;43403;51.948;5.922;2023-02-11T11:36:16;103474.22;;;8.85;100.00
57568;BME280;43403;51.948;5.922;2023-02-11T11:38:49;103481.63;;;8.75;100.00
57568;BME280;43403;51.948;5.922;2023-02-11T11:44:00;103469.28;;;8.98;100.00
57568;BME280;43403;51.948;5.922;2023-02-11T11:46:30;103462.97;;;9.02;100.00
57568;BME280;43403;51.948;5.922;2023-02-11T11:49:03;103462.88;;;9.03;100.00
57568;BME280;43403;51.948;5.922;2023-02-11T11:51:33;103460.44;;;9.00;100.00
57568;BME280;43403;51.948;5.922;2023-02-11T11:54:05;103453.28;;;9.04;100.00
57568;BME280;43403;51.948;5.922;2023-02-11T11:56:38;103440.44;;;9.17;100.00
57568;BME280;43403;51.948;5.922;2023-02-11T11:59:11;103445.78;;;9.33;100.00
57568;BME280;43403;51.948;5.922;2023-02-11T12:02:05;103454.13;;;9.41;100.00
57568;BME280;43403;51.948;5.922;2023-02-11T12:04:46;103455.00;;;9.41;100.00
57568;BME280;43403;51.948;5.922;2023-02-11T12:07:48;103451.06;;;9.50;100.00
57568;BME280;43403;51.948;5.922;2023-02-11T12:10:30;103443.84;;;9.55;100.00
57568;BME280;43403;51.948;5.922;2023-02-11T12:13:19;103436.50;;;9.62;100.00
57568;BME280;43403;51.948;5.922;2023-02-11T12:16:34;103437.91;;;9.69;100.00
57568;BME280;43403;51.948;5.922;2023-02-11T12:19:33;103431.59;;;9.73;100.00
57568;BME280;43403;51.948;5.922;2023-02-11T12:22:28;103428.53;;;9.82;100.00
57568;BME280;43403;51.948;5.922;2023-02-11T12:28:28;103429.88;;;9.89;100.00
57568;BME280;43403;51.948;5.922;2023-02-11T12:33:35;103427.56;;;10.01;100.00
57568;BME280;43403;51.948;5.922;2023-02-11T12:36:33;103426.16;;;10.11;100.00
57568;BME280;43403;51.948;5.922;2023-02-11T12:39:43;103423.53;;;10.11;100.00
57568;BME280;43403;51.948;5.922;2023-02-11T12:42:42;103430.94;;;10.20;100.00
57568;BME280;43403;51.948;5.922;2023-02-11T12:45:38;103425.22;;;10.29;100.00
57568;BME280;43403;51.948;5.922;2023-02-11T12:59:16;103441.47;;;10.54;100.00
57568;BME280;43403;51.948;5.922;2023-02-11T13:01:47;103427.41;;;10.55;100.00
57568;BME280;43403;51.948;5.922;2023-02-11T13:04:28;103438.91;;;10.52;100.00
57568;BME280;43403;51.948;5.922;2023-02-11T13:07:03;103423.84;;;10.56;100.00
57568;BME280;43403;51.948;5.922;2023-02-11T13:09:37;103423.91;;;10.54;100.00
57568;BME280;43403;51.948;5.922;2023-02-11T13:12:09;103425.03;;;10.66;100.00
57568;BME280;43403;51.948;5.922;2023-02-11T13:15:00;103432.00;;;10.67;100.00
57568;BME280;43403;51.948;5.922;2023-02-11T13:17:34;103426.47;;;10.56;100.00
57568;BME280;43403;51.948;5.922;2023-02-11T13:20:14;103426.41;;;10.57;100.00
57568;BME280;43403;51.948;5.922;2023-02-11T13:23:23;103421.47;;;10.51;100.00
57568;BME280;43403;51.948;5.922;2023-02-11T13:26:07;103425.19;;;10.47;100.00
57568;BME280;43403;51.948;5.922;2023-02-11T13:28:50;103424.09;;;10.51;100.00
57568;BME280;43403;51.948;5.922;2023-02-11T13:31:19;103413.00;;;10.46;100.00
57568;BME280;43403;51.948;5.922;2023-02-11T13:33:46;103406.97;;;10.44;100.00
57568;BME280;43403;51.948;5.922;2023-02-11T13:36:25;103401.13;;;10.39;100.00
57568;BME280;43403;51.948;5.922;2023-02-11T13:38:58;103408.69;;;10.45;100.00
57568;BME280;43403;51.948;5.922;2023-02-11T13:41:29;103412.78;;;10.51;100.00
57568;BME280;43403;51.948;5.922;2023-02-11T13:43:58;103418.31;;;10.44;100.00
57568;BME280;43403;51.948;5.922;2023-02-11T13:46:40;103418.16;;;10.47;100.00
57568;BME280;43403;51.948;5.922;2023-02-11T13:49:19;103418.50;;;10.41;100.00
57568;BME280;43403;51.948;5.922;2023-02-11T13:51:46;103417.81;;;10.38;100.00
57568;BME280;43403;51.948;5.922;2023-02-11T13:54:29;103413.41;;;10.38;100.00
57568;BME280;43403;51.948;5.922;2023-02-11T13:59:56;103428.72;;;10.30;100.00
57568;BME280;43403;51.948;5.922;2023-02-11T14:02:34;103420.97;;;10.27;100.00
57568;BME280;43403;51.948;5.922;2023-02-11T14:05:27;103413.72;;;10.32;100.00
57568;BME280;43403;51.948;5.922;2023-02-11T14:08:17;103411.25;;;10.29;100.00
57568;BME280;43403;51.948;5.922;2023-02-11T14:11:52;103414.28;;;10.21;100.00
57568;BME280;43403;51.948;5.922;2023-02-11T14:16:21;103420.44;;;10.20;100.00
57568;BME280;43403;51.948;5.922;2023-02-11T14:19:02;103420.44;;;10.20;100.00
57568;BME280;43403;51.948;5.922;2023-02-11T14:21:38;103422.22;;;10.20;100.00
57568;BME280;43403;51.948;5.922;2023-02-11T14:26:54;103422.44;;;10.15;100.00